createdAt,value
2023-02-15T00:00:24.311Z,10.68
2023-02-15T00:02:50.868Z,10.48
2023-02-15T00:05:17.794Z,9.88
2023-02-15T00:07:44.283Z,10.85
2023-02-15T00:10:12.056Z,10.23
2023-02-15T00:12:38.551Z,9.93
2023-02-15T00:15:05.116Z,9.77
2023-02-15T00:17:31.596Z,9.80
2023-02-15T00:19:58.063Z,10.70
2023-02-15T00:22:24.520Z,10.25
2023-02-15T00:24:51.170Z,10.85
2023-02-15T00:27:17.668Z,10.15
2023-02-15T00:29:44.116Z,9.52
2023-02-15T00:32:13.607Z,10.00
2023-02-15T00:34:40.029Z,10.68
2023-02-15T00:37:06.425Z,10.07
2023-02-15T00:39:32.844Z,11.25
2023-02-15T00:41:59.730Z,9.57
2023-02-15T00:44:26.107Z,10.30
2023-02-15T00:46:52.547Z,10.25
2023-02-15T00:49:18.970Z,9.95
2023-02-15T00:51:45.393Z,9.93
2023-02-15T00:54:11.950Z,10.75
2023-02-15T00:56:38.425Z,9.18
2023-02-15T00:59:04.811Z,9.82
2023-02-15T01:01:31.203Z,9.23
2023-02-15T01:03:57.860Z,10.25
2023-02-15T01:06:24.341Z,11.38
2023-02-15T01:08:50.772Z,11.05
2023-02-15T01:11:23.386Z,11.13
2023-02-15T01:13:54.322Z,9.40
2023-02-15T01:16:21.544Z,11.20
2023-02-15T01:18:48.460Z,10.30
2023-02-15T01:21:16.530Z,10.80
2023-02-15T01:23:43.404Z,9.32
2023-02-15T01:26:09.968Z,10.48
2023-02-15T01:28:36.751Z,9.95
2023-02-15T01:31:10.755Z,9.70
2023-02-15T01:33:37.277Z,9.38
2023-02-15T01:36:03.985Z,10.52
2023-02-15T01:38:30.441Z,11.32
2023-02-15T01:41:18.928Z,10.93
2023-02-15T01:43:46.966Z,10.07
2023-02-15T01:46:14.206Z,10.32
2023-02-15T01:48:51.584Z,11.75
2023-02-15T01:51:21.332Z,10.18
2023-02-15T01:56:20.988Z,9.32
2023-02-15T01:58:48.493Z,10.07
2023-02-15T02:01:14.917Z,10.52
2023-02-15T02:03:44.317Z,9.73
2023-02-15T02:06:10.960Z,9.95
2023-02-15T02:08:37.357Z,11.20
2023-02-15T02:11:13.880Z,10.05
2023-02-15T02:13:44.391Z,10.23
2023-02-15T02:16:13.887Z,11.52
2023-02-15T02:18:47.457Z,11.02
2023-02-15T02:21:33.034Z,10.50
2023-02-15T02:24:05.553Z,10.18
2023-02-15T02:26:58.675Z,9.38
2023-02-15T02:29:43.930Z,10.82
2023-02-15T02:32:32.801Z,11.35
2023-02-15T02:35:02.106Z,9.95
2023-02-15T02:37:31.536Z,10.95
2023-02-15T02:40:10.188Z,11.45
2023-02-15T02:42:45.371Z,11.40
2023-02-15T02:45:14.911Z,10.32
2023-02-15T02:47:44.169Z,10.15
2023-02-15T02:50:15.214Z,10.48
2023-02-15T02:52:48.479Z,10.88
2023-02-15T02:55:30.435Z,10.95
2023-02-15T02:57:56.863Z,11.40
2023-02-15T03:00:24.462Z,12.40
2023-02-15T03:02:53.467Z,11.07
2023-02-15T03:05:22.208Z,11.27
2023-02-15T03:07:51.717Z,11.48
2023-02-15T03:10:19.852Z,11.25
2023-02-15T03:12:46.446Z,11.52
2023-02-15T03:15:12.830Z,10.45
2023-02-15T03:17:42.065Z,9.73
2023-02-15T03:20:11.639Z,11.13
2023-02-15T03:22:42.246Z,11.63
2023-02-15T03:25:26.179Z,10.93
2023-02-15T03:27:55.756Z,12.13
2023-02-15T03:30:23.343Z,10.75
2023-02-15T03:32:50.944Z,10.95
2023-02-15T03:35:17.429Z,11.73
2023-02-15T03:37:55.950Z,11.65
2023-02-15T03:40:43.628Z,11.25
2023-02-15T03:43:19.672Z,11.27
2023-02-15T03:45:55.746Z,10.98
2023-02-15T03:48:32.965Z,13.02
2023-02-15T03:51:21.719Z,10.45
2023-02-15T03:53:52.255Z,11.63
2023-02-15T03:56:18.683Z,10.93
2023-02-15T03:59:03.749Z,12.13
2023-02-15T04:01:54.316Z,11.65
2023-02-15T04:04:25.492Z,12.25
2023-02-15T04:06:52.220Z,11.50
2023-02-15T04:09:36.901Z,12.20
2023-02-15T04:12:03.492Z,10.93
2023-02-15T04:14:48.714Z,11.50
2023-02-15T04:17:15.171Z,13.00
2023-02-15T04:20:03.520Z,13.15
2023-02-15T04:22:48.305Z,12.02
2023-02-15T04:25:14.723Z,11.65
2023-02-15T04:27:49.443Z,12.73
2023-02-15T04:30:17.235Z,11.00
2023-02-15T04:32:43.755Z,11.38
2023-02-15T04:35:10.474Z,12.43
2023-02-15T04:37:36.977Z,11.68
2023-02-15T04:40:06.876Z,13.95
2023-02-15T04:42:33.330Z,12.50
2023-02-15T04:45:00.139Z,12.82
2023-02-15T04:47:26.609Z,11.20
2023-02-15T04:49:53.113Z,12.57
2023-02-15T04:52:19.543Z,12.00
2023-02-15T04:54:46.258Z,12.43
2023-02-15T04:57:12.956Z,11.95
2023-02-15T04:59:39.380Z,12.20
2023-02-15T05:02:05.796Z,14.57
2023-02-15T05:04:32.320Z,12.90
2023-02-15T05:06:58.802Z,13.25
2023-02-15T05:09:25.281Z,12.65
2023-02-15T05:11:51.752Z,15.90
2023-02-15T05:14:18.323Z,11.77
2023-02-15T05:16:44.873Z,12.88
2023-02-15T05:19:11.344Z,12.65
2023-02-15T05:21:40.563Z,13.73
2023-02-15T05:24:27.048Z,14.35
2023-02-15T05:27:12.209Z,13.82
2023-02-15T05:29:38.731Z,12.63
2023-02-15T05:32:05.438Z,13.35
2023-02-15T05:34:35.136Z,12.50
2023-02-15T05:37:01.630Z,12.50
2023-02-15T05:39:28.073Z,13.07
2023-02-15T05:41:54.564Z,13.48
2023-02-15T05:44:21.017Z,14.32
2023-02-15T05:46:47.459Z,13.27
2023-02-15T05:49:13.868Z,12.52
2023-02-15T05:51:40.299Z,15.20
2023-02-15T05:54:06.832Z,14.85
2023-02-15T05:56:33.308Z,14.00
2023-02-15T05:58:59.784Z,15.27
2023-02-15T06:01:26.203Z,13.40
2023-02-15T06:03:53.392Z,13.80
2023-02-15T06:06:19.881Z,15.77
2023-02-15T06:08:46.306Z,14.30
2023-02-15T06:11:12.752Z,15.75
2023-02-15T06:13:41.421Z,14.40
2023-02-15T06:16:08.009Z,14.85
2023-02-15T06:18:34.891Z,14.23
2023-02-15T06:21:01.270Z,15.18
2023-02-15T06:23:27.830Z,14.15
2023-02-15T06:25:54.284Z,12.95
2023-02-15T06:28:20.738Z,14.85
2023-02-15T06:30:47.499Z,13.50
2023-02-15T06:33:13.939Z,14.20
2023-02-15T06:35:40.466Z,16.27
2023-02-15T06:38:06.877Z,14.63
2023-02-15T06:40:33.324Z,14.38
2023-02-15T06:42:59.760Z,13.75
2023-02-15T06:45:26.175Z,14.20
2023-02-15T06:47:52.631Z,13.32
2023-02-15T06:50:19.129Z,14.80
2023-02-15T06:52:45.582Z,12.95
2023-02-15T06:55:12.001Z,13.55
2023-02-15T06:57:40.303Z,13.80
2023-02-15T07:00:07.761Z,12.43
2023-02-15T07:02:34.263Z,15.38
2023-02-15T07:05:00.860Z,13.70
2023-02-15T07:07:27.356Z,12.90
2023-02-15T07:09:53.816Z,13.18
2023-02-15T07:12:39.086Z,11.75
2023-02-15T07:15:07.737Z,12.90
2023-02-15T07:17:36.057Z,13.60
2023-02-15T07:20:13.448Z,14.15
2023-02-15T07:22:39.913Z,12.93
2023-02-15T07:25:07.498Z,12.10
2023-02-15T07:27:34.015Z,13.55
2023-02-15T07:30:00.850Z,12.00
2023-02-15T07:32:31.128Z,11.85
2023-02-15T07:34:58.409Z,12.38
2023-02-15T07:37:25.063Z,12.80
2023-02-15T07:39:51.703Z,13.75
2023-02-15T07:42:18.852Z,12.95
2023-02-15T07:44:45.377Z,13.82
2023-02-15T07:47:12.971Z,13.30
2023-02-15T07:49:39.409Z,14.43
2023-02-15T07:52:08.194Z,12.95
2023-02-15T07:54:34.585Z,11.90
2023-02-15T07:57:01.576Z,12.75
2023-02-15T07:59:28.378Z,14.52
2023-02-15T08:01:57.304Z,12.50
2023-02-15T08:04:24.215Z,12.75
2023-02-15T08:06:52.856Z,13.02
2023-02-15T08:09:22.614Z,12.23
2023-02-15T08:11:49.339Z,13.27
2023-02-15T08:14:17.043Z,13.77
2023-02-15T08:16:43.457Z,12.43
2023-02-15T08:19:28.625Z,12.85
2023-02-15T08:21:59.173Z,12.77
2023-02-15T08:24:26.759Z,13.52
2023-02-15T08:26:53.557Z,13.55
2023-02-15T08:29:23.207Z,14.02
2023-02-15T08:31:50.248Z,12.60
2023-02-15T08:34:18.117Z,12.88
2023-02-15T08:36:46.140Z,13.27
2023-02-15T08:39:15.565Z,14.65
2023-02-15T08:41:46.085Z,12.85
2023-02-15T08:44:12.966Z,15.30
2023-02-15T08:46:40.667Z,13.82
2023-02-15T08:49:07.108Z,12.88
2023-02-15T08:51:34.813Z,15.38
2023-02-15T08:54:02.479Z,13.82
2023-02-15T08:56:30.050Z,15.05
2023-02-15T08:58:57.192Z,15.05
2023-02-15T09:01:25.594Z,14.68
2023-02-15T09:03:55.776Z,16.17
2023-02-15T09:06:23.128Z,16.23
2023-02-15T09:08:50.089Z,14.25
2023-02-15T09:11:23.274Z,15.82
2023-02-15T09:13:51.212Z,15.85
2023-02-15T09:16:20.585Z,15.55
2023-02-15T09:18:47.296Z,13.88
2023-02-15T09:21:15.149Z,16.10
2023-02-15T09:23:42.299Z,15.15
2023-02-15T09:26:10.313Z,15.85
2023-02-15T09:28:37.254Z,13.75
2023-02-15T09:31:11.028Z,14.43
2023-02-15T09:33:38.220Z,13.45
2023-02-15T09:36:05.318Z,15.05
2023-02-15T09:38:31.848Z,15.00
2023-02-15T09:41:18.493Z,14.30
2023-02-15T09:44:00.252Z,13.48
2023-02-15T09:46:41.343Z,13.80
2023-02-15T09:49:28.063Z,13.95
2023-02-15T09:52:07.498Z,15.15
2023-02-15T09:54:42.827Z,14.23
2023-02-15T09:57:21.187Z,14.50
2023-02-15T10:00:11.562Z,14.52
2023-02-15T10:02:55.668Z,14.38
2023-02-15T10:05:40.934Z,14.90
2023-02-15T10:08:07.318Z,13.73
2023-02-15T10:10:47.068Z,15.48
2023-02-15T10:13:16.503Z,13.85
2023-02-15T10:15:46.025Z,12.32
2023-02-15T10:18:17.301Z,13.10
2023-02-15T10:20:43.708Z,14.10
2023-02-15T10:23:22.443Z,14.45
2023-02-15T10:25:55.075Z,13.40
2023-02-15T10:28:24.984Z,14.25
2023-02-15T10:30:52.487Z,12.77
2023-02-15T10:33:18.937Z,13.68
2023-02-15T10:35:48.414Z,14.43
2023-02-15T10:38:22.095Z,12.90
2023-02-15T10:41:00.734Z,13.00
2023-02-15T10:43:46.180Z,10.65
2023-02-15T10:46:18.947Z,12.55
2023-02-15T10:48:48.503Z,12.07
2023-02-15T10:51:27.196Z,12.60
2023-02-15T10:54:00.829Z,11.02
2023-02-15T10:56:30.246Z,11.55
2023-02-15T10:58:59.789Z,11.13
2023-02-15T11:01:26.200Z,10.82
2023-02-15T11:04:11.061Z,12.40
2023-02-15T11:06:42.307Z,11.45
2023-02-15T11:09:16.624Z,11.68
2023-02-15T11:11:46.072Z,12.88
2023-02-15T11:14:18.654Z,12.35
2023-02-15T11:16:50.067Z,11.73
2023-02-15T11:19:31.255Z,11.93
2023-02-15T11:22:03.468Z,14.45
2023-02-15T11:24:31.028Z,13.35
2023-02-15T11:27:00.963Z,13.80
2023-02-15T11:29:47.341Z,13.03
2023-02-15T11:32:13.868Z,13.77
2023-02-15T11:34:51.009Z,12.30
2023-02-15T11:37:19.361Z,13.50
2023-02-15T11:39:46.598Z,13.10
2023-02-15T11:42:15.453Z,12.70
2023-02-15T11:45:02.032Z,12.07
2023-02-15T11:47:28.756Z,13.13
2023-02-15T11:49:55.175Z,12.75
2023-02-15T11:52:21.662Z,11.43
2023-02-15T11:54:51.109Z,12.63
2023-02-15T11:57:34.716Z,12.70
2023-02-15T12:00:28.462Z,12.52
2023-02-15T12:02:58.493Z,12.25
2023-02-15T12:05:25.922Z,12.73
2023-02-15T12:07:52.415Z,13.18
2023-02-15T12:10:22.947Z,11.57
2023-02-15T12:12:49.534Z,12.93
2023-02-15T12:15:30.590Z,12.30
2023-02-15T12:17:57.210Z,12.80
2023-02-15T12:20:30.510Z,11.88
2023-02-15T12:23:08.158Z,11.48
2023-02-15T12:25:38.834Z,12.27
2023-02-15T12:28:16.788Z,13.65
2023-02-15T12:30:43.777Z,13.48
2023-02-15T12:33:19.251Z,12.18
2023-02-15T12:35:52.153Z,10.70
2023-02-15T12:38:18.532Z,11.07
2023-02-15T12:40:57.094Z,10.88
2023-02-15T12:43:33.079Z,10.93
2023-02-15T12:46:19.903Z,11.07
2023-02-15T12:48:46.453Z,12.13
2023-02-15T12:51:15.380Z,12.10
2023-02-15T12:53:44.960Z,12.60
2023-02-15T12:56:12.075Z,12.15
2023-02-15T12:58:39.686Z,11.63
2023-02-15T13:01:16.748Z,11.93
2023-02-15T13:03:49.480Z,11.13
2023-02-15T13:06:17.979Z,10.98
2023-02-15T13:08:49.499Z,11.60
2023-02-15T13:11:21.826Z,11.23
2023-02-15T13:13:54.124Z,11.95
2023-02-15T13:16:25.845Z,12.70
2023-02-15T13:18:53.056Z,11.55
2023-02-15T13:21:21.387Z,13.57
2023-02-15T13:24:00.010Z,11.38
2023-02-15T13:26:27.784Z,11.52
2023-02-15T13:28:57.019Z,11.02
2023-02-15T13:31:28.939Z,10.65
2023-02-15T13:34:11.046Z,12.13
2023-02-15T13:36:42.325Z,13.93
2023-02-15T13:39:24.079Z,11.25
2023-02-15T13:42:09.136Z,11.63
2023-02-15T13:44:54.494Z,10.35
2023-02-15T13:47:38.362Z,11.23
2023-02-15T13:50:15.535Z,12.63
2023-02-15T13:52:47.191Z,11.55
2023-02-15T13:55:48.876Z,11.65
2023-02-15T13:58:15.404Z,11.45
2023-02-15T14:00:44.952Z,11.13
2023-02-15T14:03:16.792Z,11.40
2023-02-15T14:05:55.498Z,14.55
2023-02-15T14:08:35.949Z,12.20
2023-02-15T14:11:02.480Z,12.63
2023-02-15T14:13:41.382Z,11.82
2023-02-15T14:16:21.225Z,11.23
2023-02-15T14:19:02.992Z,12.32
2023-02-15T14:21:35.293Z,11.02
2023-02-15T14:24:13.924Z,11.30
2023-02-15T14:26:46.511Z,10.82
2023-02-15T14:29:25.639Z,10.13
2023-02-15T14:32:04.388Z,11.23
2023-02-15T14:34:48.815Z,11.40
2023-02-15T14:37:17.581Z,11.25
2023-02-15T14:40:16.692Z,11.95
2023-02-15T14:43:01.408Z,11.27
2023-02-15T14:45:35.121Z,10.50
2023-02-15T14:48:04.984Z,11.38
2023-02-15T14:50:31.430Z,8.63
2023-02-15T14:53:28.784Z,13.48
2023-02-15T14:56:10.402Z,11.15
2023-02-15T14:59:00.160Z,11.65
2023-02-15T15:01:34.483Z,10.35
2023-02-15T15:04:03.181Z,12.90
2023-02-15T15:06:34.012Z,11.30
2023-02-15T15:11:42.486Z,10.57
2023-02-15T15:14:09.379Z,11.23
2023-02-15T15:16:38.542Z,12.05
2023-02-15T15:19:07.375Z,11.00
2023-02-15T15:21:51.848Z,11.73
2023-02-15T15:24:37.002Z,11.85
2023-02-15T15:27:22.392Z,10.95
2023-02-15T15:29:48.817Z,9.63
2023-02-15T15:32:19.021Z,12.32
2023-02-15T15:35:03.979Z,12.57
2023-02-15T15:37:43.944Z,11.68
2023-02-15T15:40:29.237Z,13.17
2023-02-15T15:43:10.930Z,12.70
2023-02-15T15:45:52.752Z,11.15
2023-02-15T15:48:39.706Z,12.05
2023-02-15T15:51:15.800Z,11.52
2023-02-15T15:53:46.782Z,13.38
2023-02-15T15:56:15.106Z,12.52
2023-02-15T15:58:43.967Z,12.27
2023-02-15T16:01:12.485Z,12.30
2023-02-15T16:03:39.236Z,14.07
2023-02-15T16:06:06.435Z,12.35
2023-02-15T16:08:37.342Z,13.20
2023-02-15T16:11:12.154Z,13.65
2023-02-15T16:13:44.793Z,11.60
2023-02-15T16:16:13.618Z,12.32
2023-02-15T16:18:43.327Z,12.27
2023-02-15T16:21:15.046Z,12.38
2023-02-15T16:24:01.941Z,12.50
2023-02-15T16:26:40.752Z,13.93
2023-02-15T16:29:17.303Z,13.32
2023-02-15T16:31:43.977Z,13.25
2023-02-15T16:34:16.960Z,14.07
2023-02-15T16:36:43.375Z,12.05
2023-02-15T16:39:33.006Z,12.02
2023-02-15T16:42:02.877Z,13.55
2023-02-15T16:44:33.825Z,15.13
2023-02-15T16:47:00.469Z,13.18
2023-02-15T16:49:29.801Z,14.43
2023-02-15T16:52:03.763Z,13.20
2023-02-15T16:54:32.282Z,13.93
2023-02-15T16:56:59.003Z,12.80
2023-02-15T16:59:25.931Z,11.80
2023-02-15T17:01:52.930Z,14.55
2023-02-15T17:04:22.330Z,13.25
2023-02-15T17:07:14.588Z,11.85
2023-02-15T17:09:49.964Z,11.20
2023-02-15T17:12:36.309Z,12.23
2023-02-15T17:15:03.230Z,11.68
2023-02-15T17:17:31.940Z,13.18
2023-02-15T17:19:58.676Z,12.02
2023-02-15T17:22:31.875Z,13.20
2023-02-15T17:24:59.554Z,12.77
2023-02-15T17:27:26.893Z,12.98
2023-02-15T17:29:57.317Z,12.77
2023-02-15T17:32:25.669Z,13.15
2023-02-15T17:35:05.048Z,13.40
2023-02-15T17:37:37.514Z,15.15
2023-02-15T17:40:19.222Z,13.00
2023-02-15T17:42:45.638Z,13.93
2023-02-15T17:45:13.686Z,13.88
2023-02-15T17:47:41.677Z,14.98
2023-02-15T17:50:09.343Z,14.23
2023-02-15T17:52:36.971Z,13.48
2023-02-15T17:55:31.828Z,14.35
2023-02-15T17:57:58.202Z,13.57
2023-02-15T18:00:43.294Z,13.55
2023-02-15T18:03:31.485Z,13.30
2023-02-15T18:06:17.280Z,14.45
2023-02-15T18:09:02.008Z,13.90
2023-02-15T18:11:40.646Z,12.48
2023-02-15T18:14:08.251Z,12.30
2023-02-15T18:16:36.488Z,13.63
2023-02-15T18:19:04.884Z,13.18
2023-02-15T18:21:32.765Z,12.25
2023-02-15T18:24:02.240Z,12.98
2023-02-15T18:26:30.338Z,13.32
2023-02-15T18:28:56.781Z,12.95
2023-02-15T18:31:23.845Z,14.77
2023-02-15T18:33:58.175Z,12.20
2023-02-15T18:36:28.128Z,12.13
2023-02-15T18:38:55.571Z,12.93
2023-02-15T18:41:22.846Z,12.18
2023-02-15T18:43:50.120Z,11.95
2023-02-15T18:46:17.318Z,11.70
2023-02-15T18:48:44.417Z,11.85
2023-02-15T18:51:21.266Z,11.65
2023-02-15T18:53:48.744Z,12.18
2023-02-15T18:56:16.424Z,11.32
2023-02-15T18:58:43.035Z,10.02
2023-02-15T19:01:18.990Z,11.43
2023-02-15T19:03:46.370Z,11.07
2023-02-15T19:06:13.597Z,11.65
2023-02-15T19:08:40.226Z,10.32
2023-02-15T19:11:13.223Z,13.23
2023-02-15T19:13:39.685Z,11.52
2023-02-15T19:16:06.378Z,11.68
2023-02-15T19:18:32.807Z,9.93
2023-02-15T19:20:59.268Z,9.65
2023-02-15T19:23:26.700Z,9.00
2023-02-15T19:25:53.600Z,11.75
2023-02-15T19:28:23.536Z,8.82
2023-02-15T19:30:50.022Z,10.47
2023-02-15T19:33:18.067Z,10.18
2023-02-15T19:35:48.773Z,10.50
2023-02-15T19:38:17.773Z,11.13
2023-02-15T19:40:44.547Z,11.23
2023-02-15T19:43:16.422Z,11.40
2023-02-15T19:45:42.891Z,11.90
2023-02-15T19:48:17.035Z,9.10
2023-02-15T19:50:46.054Z,11.07
2023-02-15T19:53:20.944Z,10.02
2023-02-15T19:55:51.027Z,10.10
2023-02-15T19:58:19.153Z,11.75
2023-02-15T20:00:49.604Z,10.32
2023-02-15T20:03:16.247Z,10.65
2023-02-15T20:05:43.255Z,10.63
2023-02-15T20:08:17.491Z,11.00
2023-02-15T20:10:45.369Z,9.43
2023-02-15T20:13:15.882Z,10.25
2023-02-15T20:15:42.549Z,9.75
2023-02-15T20:18:09.485Z,11.20
2023-02-15T20:20:50.175Z,10.95
2023-02-15T20:23:24.779Z,9.82
2023-02-15T20:25:51.221Z,9.63
2023-02-15T20:28:19.520Z,10.25
2023-02-15T20:30:46.441Z,9.95
2023-02-15T20:33:13.511Z,11.02
2023-02-15T20:35:40.288Z,10.93
2023-02-15T20:38:06.950Z,10.80
2023-02-15T20:40:34.742Z,10.80
2023-02-15T20:43:01.790Z,11.25
2023-02-15T20:45:31.829Z,11.52
2023-02-15T20:47:58.943Z,10.13
2023-02-15T20:50:26.791Z,11.13
2023-02-15T20:52:54.033Z,11.65
2023-02-15T20:55:21.779Z,11.13
2023-02-15T20:57:48.438Z,11.27
2023-02-15T21:00:25.332Z,12.27
2023-02-15T21:02:56.394Z,12.00
2023-02-15T21:05:24.337Z,12.75
2023-02-15T21:07:51.337Z,14.07
2023-02-15T21:10:20.760Z,13.23
2023-02-15T21:12:47.927Z,13.05
2023-02-15T21:15:34.060Z,15.45
2023-02-15T21:18:02.069Z,13.07
2023-02-15T21:20:30.020Z,14.98
2023-02-15T21:22:57.915Z,14.95
2023-02-15T21:25:29.783Z,14.75
2023-02-15T21:27:56.393Z,15.15
2023-02-15T21:30:26.306Z,16.35
2023-02-15T21:32:52.881Z,16.30
2023-02-15T21:35:20.048Z,15.57
2023-02-15T21:37:48.444Z,15.43
2023-02-15T21:40:15.153Z,17.33
2023-02-15T21:43:00.501Z,17.30
2023-02-15T21:45:45.695Z,16.48
2023-02-15T21:48:12.175Z,16.92
2023-02-15T21:50:56.982Z,18.60
2023-02-15T21:53:46.026Z,19.02
2023-02-15T21:56:20.195Z,19.60
2023-02-15T21:58:46.899Z,19.77
2023-02-15T22:01:20.375Z,22.23
2023-02-15T22:03:46.985Z,19.25
2023-02-15T22:06:16.246Z,19.90
2023-02-15T22:08:42.959Z,20.50
2023-02-15T22:11:13.686Z,19.42
2023-02-15T22:13:40.351Z,18.70
2023-02-15T22:16:06.856Z,20.15
2023-02-15T22:18:34.166Z,18.35
2023-02-15T22:21:00.787Z,19.55
2023-02-15T22:23:27.362Z,19.10
2023-02-15T22:25:56.162Z,18.92
2023-02-15T22:28:33.726Z,19.23
2023-02-15T22:31:00.660Z,17.95
2023-02-15T22:33:32.244Z,18.70
2023-02-15T22:35:59.108Z,18.30
2023-02-15T22:38:25.631Z,17.13
2023-02-15T22:40:53.056Z,20.17
2023-02-15T22:43:29.342Z,18.90
2023-02-15T22:45:59.751Z,17.52
2023-02-15T22:48:26.237Z,17.02
2023-02-15T22:50:52.647Z,18.10
2023-02-15T22:53:19.091Z,17.58
2023-02-15T22:55:45.819Z,16.10
2023-02-15T22:58:20.664Z,15.88
2023-02-15T23:00:47.128Z,17.25
2023-02-15T23:03:18.188Z,17.10
2023-02-15T23:05:44.967Z,15.80
2023-02-15T23:08:11.811Z,16.30
2023-02-15T23:10:39.246Z,17.38
2023-02-15T23:13:25.793Z,15.38
2023-02-15T23:15:53.958Z,16.33
2023-02-15T23:18:33.866Z,16.08
2023-02-15T23:21:00.294Z,14.82
2023-02-15T23:23:41.753Z,14.50
2023-02-15T23:26:27.357Z,15.27
2023-02-15T23:28:54.204Z,13.52
2023-02-15T23:31:34.409Z,14.73
2023-02-15T23:34:02.615Z,14.13
2023-02-15T23:36:31.814Z,15.50
2023-02-15T23:38:59.431Z,14.77
2023-02-15T23:41:27.270Z,13.82
2023-02-15T23:43:56.302Z,14.40
2023-02-15T23:46:28.059Z,14.20
2023-02-15T23:48:55.126Z,14.65
2023-02-15T23:51:24.090Z,14.65
2023-02-15T23:53:50.852Z,15.63
2023-02-15T23:56:17.430Z,13.57
2023-02-15T23:58:44.976Z,14.05
